createdAt,value
2022-08-18T00:03:04.420Z,20.60
2022-08-18T00:07:07.672Z,20.43
2022-08-18T00:11:08.878Z,22.23
2022-08-18T00:15:12.999Z,22.73
2022-08-18T00:19:14.218Z,21.00
2022-08-18T00:23:15.491Z,21.33
2022-08-18T00:27:21.825Z,21.30
2022-08-18T00:31:24.047Z,21.43
2022-08-18T00:35:29.419Z,20.43
2022-08-18T00:39:35.089Z,22.13
2022-08-18T00:43:45.251Z,22.10
2022-08-18T00:47:46.702Z,21.60
2022-08-18T00:51:50.210Z,25.40
2022-08-18T00:55:53.948Z,24.37
2022-08-18T01:00:04.262Z,22.13
2022-08-18T01:04:24.366Z,22.70
2022-08-18T01:08:29.258Z,22.00
2022-08-18T01:12:44.077Z,22.87
2022-08-18T01:16:55.325Z,23.03
2022-08-18T01:21:28.282Z,21.17
2022-08-18T01:25:50.179Z,20.13
2022-08-18T01:29:51.107Z,19.53
2022-08-18T01:33:52.094Z,20.60
2022-08-18T01:37:54.142Z,19.03
2022-08-18T01:41:55.282Z,19.63
2022-08-18T01:45:58.128Z,20.10
2022-08-18T01:50:00.156Z,20.30
2022-08-18T01:54:04.123Z,21.73
2022-08-18T01:58:07.402Z,21.00
2022-08-18T02:02:18.538Z,20.77
2022-08-18T02:06:18.646Z,19.43
2022-08-18T02:10:21.701Z,19.03
2022-08-18T02:14:44.540Z,19.93
2022-08-18T02:18:48.204Z,20.20
2022-08-18T02:22:49.629Z,20.73
2022-08-18T02:26:50.653Z,20.73
2022-08-18T02:30:51.734Z,19.93
2022-08-18T02:34:52.623Z,21.53
2022-08-18T02:38:56.641Z,20.33
2022-08-18T02:42:57.372Z,18.97
2022-08-18T02:46:58.879Z,18.83
2022-08-18T02:51:06.348Z,18.93
2022-08-18T02:55:08.518Z,17.33
2022-08-18T02:59:13.216Z,17.67
2022-08-18T03:03:14.393Z,18.83
2022-08-18T03:07:15.268Z,20.40
2022-08-18T03:11:18.294Z,20.37
2022-08-18T03:15:19.499Z,19.63
2022-08-18T03:19:28.791Z,19.67
2022-08-18T03:23:30.479Z,18.97
2022-08-18T03:27:31.471Z,19.20
2022-08-18T03:31:33.083Z,19.97
2022-08-18T03:35:36.368Z,19.00
2022-08-18T03:39:37.909Z,20.10
2022-08-18T03:43:51.130Z,21.70
2022-08-18T03:47:44.860Z,20.43
2022-08-18T03:51:46.371Z,22.40
2022-08-18T03:55:47.374Z,23.33
2022-08-18T03:59:49.046Z,21.50
2022-08-18T04:03:54.821Z,20.47
2022-08-18T04:07:56.717Z,19.33
2022-08-18T04:12:00.615Z,19.83
2022-08-18T04:16:01.816Z,21.57
2022-08-18T04:20:04.142Z,23.07
2022-08-18T04:24:06.961Z,23.53
2022-08-18T04:28:08.034Z,21.97
2022-08-18T04:32:09.348Z,22.57
2022-08-18T04:36:13.792Z,22.77
2022-08-18T04:40:20.213Z,19.30
2022-08-18T04:44:20.911Z,20.87
2022-08-18T04:48:22.750Z,19.63
2022-08-18T04:52:42.713Z,22.30
2022-08-18T04:56:43.831Z,22.47
2022-08-18T05:00:45.930Z,21.63
2022-08-18T05:04:47.297Z,19.07
2022-08-18T05:08:48.325Z,20.60
2022-08-18T05:12:49.456Z,20.70
2022-08-18T05:16:51.458Z,18.63
2022-08-18T05:20:54.851Z,19.50
2022-08-18T05:24:55.871Z,20.30
2022-08-18T05:29:04.432Z,19.27
2022-08-18T05:33:02.398Z,20.37
2022-08-18T05:37:25.667Z,20.87
2022-08-18T05:41:32.508Z,21.60
2022-08-18T05:45:34.515Z,23.77
2022-08-18T05:49:36.007Z,24.63
2022-08-18T05:53:42.656Z,20.53
2022-08-18T05:57:49.282Z,22.73
2022-08-18T06:01:57.187Z,19.97
2022-08-18T06:06:04.946Z,19.73
2022-08-18T06:10:08.444Z,19.90
2022-08-18T06:14:10.098Z,18.50
2022-08-18T06:18:32.749Z,19.93
2022-08-18T06:22:46.403Z,21.40
2022-08-18T06:27:09.777Z,20.53
2022-08-18T06:31:14.525Z,20.53
2022-08-18T06:35:37.754Z,18.80
2022-08-18T06:39:48.261Z,24.00
2022-08-18T06:43:58.112Z,22.10
2022-08-18T06:48:18.383Z,20.90
2022-08-18T06:52:35.413Z,21.13
2022-08-18T06:56:40.345Z,21.70
2022-08-18T07:00:54.985Z,22.70
2022-08-18T07:05:17.667Z,21.40
2022-08-18T07:09:25.099Z,21.87
2022-08-18T07:13:29.995Z,21.23
2022-08-18T07:17:42.443Z,20.50
2022-08-18T07:21:40.416Z,21.83
2022-08-18T07:25:44.611Z,21.10
2022-08-18T07:30:09.207Z,21.03
2022-08-18T07:34:25.480Z,19.53
2022-08-18T07:38:43.121Z,18.47
2022-08-18T07:43:00.543Z,19.30
2022-08-18T07:46:58.798Z,17.97
2022-08-18T07:51:20.447Z,19.30
2022-08-18T07:55:26.947Z,19.30
2022-08-18T07:59:52.885Z,18.93
2022-08-18T08:04:06.696Z,20.50
2022-08-18T08:08:14.596Z,23.37
2022-08-18T08:12:29.428Z,22.27
2022-08-18T08:16:43.803Z,21.47
2022-08-18T08:20:56.919Z,21.73
2022-08-18T08:25:22.641Z,22.37
2022-08-18T08:29:32.485Z,21.67
2022-08-18T08:33:37.458Z,22.47
2022-08-18T08:37:49.055Z,21.73
2022-08-18T08:42:31.629Z,23.27
2022-08-18T08:46:19.313Z,25.60
2022-08-18T08:50:26.204Z,26.47
2022-08-18T08:54:39.658Z,28.00
2022-08-18T08:58:44.742Z,27.97
2022-08-18T09:02:55.768Z,27.90
2022-08-18T09:07:20.479Z,30.37
2022-08-18T09:11:28.317Z,28.37
2022-08-18T09:15:42.200Z,27.27
2022-08-18T09:20:04.889Z,23.90
2022-08-18T09:24:10.384Z,27.43
2022-08-18T09:28:33.746Z,23.97
2022-08-18T09:32:44.561Z,25.17
2022-08-18T09:37:06.196Z,26.13
2022-08-18T09:41:31.443Z,25.50
2022-08-18T09:45:43.071Z,23.27
2022-08-18T09:49:53.166Z,24.20
2022-08-18T09:54:07.566Z,21.67
2022-08-18T09:58:28.778Z,21.87
2022-08-18T10:02:36.959Z,22.87
2022-08-18T10:06:38.545Z,21.77
2022-08-18T10:11:01.004Z,20.40
2022-08-18T10:15:03.913Z,21.97
2022-08-18T10:19:39.420Z,19.50
2022-08-18T10:23:58.158Z,21.50
2022-08-18T10:27:58.240Z,20.73
2022-08-18T10:32:04.689Z,20.83
2022-08-18T10:36:06.061Z,21.00
2022-08-18T10:40:21.191Z,22.30
2022-08-18T10:44:29.264Z,20.37
2022-08-18T10:48:29.403Z,19.70
2022-08-18T10:52:54.467Z,20.83
2022-08-18T10:56:59.467Z,19.00
2022-08-18T11:01:07.375Z,20.60
2022-08-18T11:05:12.096Z,21.97
2022-08-18T11:09:15.237Z,19.70
2022-08-18T11:13:42.169Z,19.30
2022-08-18T11:18:04.422Z,18.70
2022-08-18T11:22:06.584Z,20.63
2022-08-18T11:30:19.888Z,19.10
2022-08-18T11:34:29.831Z,17.40
2022-08-18T11:38:33.141Z,18.00
2022-08-18T11:42:38.103Z,18.10
2022-08-18T11:46:40.237Z,15.23
2022-08-18T11:50:54.726Z,16.90
2022-08-18T11:55:16.817Z,17.87
2022-08-18T11:59:52.459Z,17.30
2022-08-18T12:03:41.716Z,15.87
2022-08-18T12:07:57.253Z,15.23
2022-08-18T12:11:55.802Z,16.23
2022-08-18T12:16:18.685Z,16.43
2022-08-18T12:20:20.882Z,15.93
2022-08-18T12:24:26.313Z,15.50
2022-08-18T12:28:28.589Z,17.03
2022-08-18T12:32:46.768Z,15.80
2022-08-18T12:36:36.418Z,13.67
2022-08-18T12:40:40.256Z,13.73
2022-08-18T12:44:41.763Z,15.67
2022-08-18T12:48:45.040Z,14.50
2022-08-18T12:52:47.962Z,13.77
2022-08-18T12:56:53.411Z,14.07
2022-08-18T13:00:54.876Z,13.53
2022-08-18T13:04:56.083Z,13.73
2022-08-18T13:08:57.636Z,12.37
2022-08-18T13:12:59.255Z,13.63
2022-08-18T13:17:00.270Z,12.27
2022-08-18T13:21:07.160Z,12.37
2022-08-18T13:25:12.605Z,13.43
2022-08-18T13:29:17.593Z,12.23
2022-08-18T13:33:34.522Z,13.03
2022-08-18T13:37:24.225Z,12.53
2022-08-18T13:45:27.749Z,12.40
2022-08-18T13:49:30.701Z,11.20
2022-08-18T13:53:32.377Z,10.67
2022-08-18T13:57:53.845Z,10.77
2022-08-18T14:01:55.031Z,11.47
2022-08-18T14:06:01.514Z,11.43
2022-08-18T14:10:07.282Z,11.40
2022-08-18T14:14:12.311Z,10.67
2022-08-18T14:18:16.376Z,10.40
2022-08-18T14:22:36.104Z,11.27
2022-08-18T14:26:50.271Z,11.20
2022-08-18T14:30:54.400Z,9.70
2022-08-18T14:35:00.833Z,10.47
2022-08-18T14:39:03.586Z,10.77
2022-08-18T14:43:06.513Z,12.00
2022-08-18T14:47:07.743Z,11.43
2022-08-18T14:51:09.707Z,11.60
2022-08-18T14:55:11.910Z,12.30
2022-08-18T14:59:13.037Z,11.43
2022-08-18T15:03:14.805Z,11.83
2022-08-18T15:07:17.503Z,11.37
2022-08-18T15:11:19.191Z,11.23
2022-08-18T15:15:22.618Z,12.13
2022-08-18T15:19:57.623Z,14.43
2022-08-18T15:23:46.376Z,13.60
2022-08-18T15:27:47.504Z,13.40
2022-08-18T15:31:51.250Z,13.23
2022-08-18T15:35:55.233Z,14.70
2022-08-18T15:40:21.963Z,13.47
2022-08-18T15:44:21.485Z,13.90
2022-08-18T15:48:23.672Z,15.67
2022-08-18T15:52:25.942Z,14.17
2022-08-18T15:56:28.042Z,13.70
2022-08-18T16:00:31.203Z,14.23
2022-08-18T16:04:32.304Z,16.87
2022-08-18T16:08:33.814Z,16.83
2022-08-18T16:12:34.944Z,14.80
2022-08-18T16:16:36.687Z,15.57
2022-08-18T16:20:38.425Z,15.60
2022-08-18T16:24:39.810Z,15.33
2022-08-18T16:28:42.541Z,15.50
2022-08-18T16:32:44.332Z,15.93
2022-08-18T16:36:45.450Z,16.63
2022-08-18T16:40:46.940Z,19.67
2022-08-18T16:44:48.450Z,22.93
2022-08-18T16:48:50.981Z,22.20
2022-08-18T16:52:52.296Z,23.73
2022-08-18T16:56:53.809Z,22.43
2022-08-18T17:01:18.713Z,23.23
2022-08-18T17:05:17.601Z,23.57
2022-08-18T17:09:19.437Z,22.73
2022-08-18T17:13:20.688Z,23.00
2022-08-18T17:17:22.202Z,21.17
2022-08-18T17:21:26.671Z,20.87
2022-08-18T17:25:28.130Z,18.73
2022-08-18T17:29:51.422Z,17.97
2022-08-18T17:33:56.610Z,19.87
2022-08-18T17:38:11.165Z,17.33
2022-08-18T17:42:28.673Z,16.67
2022-08-18T17:46:33.610Z,16.93
2022-08-18T17:51:15.820Z,23.90
2022-08-18T17:55:26.525Z,33.33
2022-08-18T17:59:45.354Z,43.60
2022-08-18T18:03:43.483Z,49.10
2022-08-18T18:07:51.682Z,55.80
2022-08-18T18:11:53.862Z,49.37
2022-08-18T18:16:01.137Z,64.90
2022-08-18T18:20:39.107Z,76.63
2022-08-18T18:24:43.936Z,71.57
2022-08-18T18:28:45.824Z,84.40
2022-08-18T18:32:59.924Z,78.10
2022-08-18T18:37:02.081Z,77.25
2022-08-18T18:41:09.821Z,72.50
2022-08-18T18:45:30.423Z,93.30
2022-08-18T18:49:44.446Z,73.77
2022-08-18T18:53:55.094Z,73.47
2022-08-18T18:58:20.231Z,93.93
2022-08-18T19:02:55.096Z,79.00
2022-08-18T19:07:12.114Z,75.73
2022-08-18T19:11:45.623Z,65.13
2022-08-18T19:15:47.541Z,64.53
2022-08-18T19:20:01.543Z,63.57
2022-08-18T19:24:06.594Z,84.23
2022-08-18T19:28:28.501Z,75.13
2022-08-18T19:32:36.487Z,59.93
2022-08-18T19:36:47.324Z,50.47
2022-08-18T19:41:04.796Z,54.07
2022-08-18T19:45:20.189Z,63.73
2022-08-18T19:49:34.289Z,47.87
2022-08-18T19:53:57.333Z,42.73
2022-08-18T19:58:20.459Z,31.90
2022-08-18T20:02:34.715Z,34.00
2022-08-18T20:07:00.826Z,45.13
2022-08-18T20:11:10.333Z,38.00
2022-08-18T20:15:18.463Z,34.17
2022-08-18T20:19:49.804Z,33.20
2022-08-18T20:24:07.981Z,31.43
2022-08-18T20:28:12.833Z,28.45
2022-08-18T20:32:20.687Z,29.42
2022-08-18T20:36:31.468Z,25.53
2022-08-18T20:40:39.044Z,26.43
2022-08-18T20:44:58.164Z,27.80
2022-08-18T20:49:05.882Z,29.50
2022-08-18T20:53:32.865Z,30.80
2022-08-18T20:57:36.735Z,34.93
2022-08-18T21:01:38.771Z,37.87
2022-08-18T21:05:43.069Z,37.90
2022-08-18T21:10:02.088Z,33.20
2022-08-18T21:14:05.027Z,31.53
2022-08-18T21:18:19.025Z,30.63
2022-08-18T21:22:20.222Z,33.77
2022-08-18T21:26:22.011Z,34.13
2022-08-18T21:30:26.030Z,37.77
2022-08-18T21:34:33.708Z,35.00
2022-08-18T21:38:35.842Z,32.77
2022-08-18T21:42:43.332Z,29.67
2022-08-18T21:46:45.745Z,29.10
2022-08-18T21:50:52.754Z,30.57
2022-08-18T21:54:57.567Z,29.70
2022-08-18T21:59:17.301Z,27.50
2022-08-18T22:03:24.446Z,29.87
2022-08-18T22:07:34.932Z,26.37
2022-08-18T22:12:00.735Z,27.40
2022-08-18T22:15:55.418Z,27.53
2022-08-18T22:20:00.345Z,27.00
2022-08-18T22:24:19.614Z,26.97
2022-08-18T22:28:23.595Z,27.40
2022-08-18T22:32:26.811Z,27.50
2022-08-18T22:36:31.040Z,27.47
2022-08-18T22:40:32.044Z,28.23
2022-08-18T22:44:33.645Z,26.07
2022-08-18T22:48:34.603Z,26.27
2022-08-18T22:52:39.929Z,26.47
2022-08-18T22:56:53.938Z,27.67
2022-08-18T23:00:46.460Z,28.13
2022-08-18T23:04:47.458Z,28.30
2022-08-18T23:08:55.365Z,28.70
2022-08-18T23:12:51.667Z,27.13
2022-08-18T23:16:53.186Z,29.87
2022-08-18T23:20:59.146Z,27.13
2022-08-18T23:25:00.842Z,28.00
2022-08-18T23:29:05.564Z,28.80
2022-08-18T23:33:09.280Z,29.00
2022-08-18T23:37:10.563Z,30.00
2022-08-18T23:41:13.811Z,28.83
2022-08-18T23:45:14.926Z,28.23
2022-08-18T23:49:16.028Z,29.93
2022-08-18T23:53:18.361Z,30.43
2022-08-18T23:57:19.357Z,26.27
